Time;durP1;ratioP1;P1;durP2;ratioP2;P2;SDS_P1;SDS_P2;PMS_P1;PMS_P2;Temp;Humidity;BMP_temperature;BMP_pressure;BME280_temperature;BME280_humidity;BME280_pressure;Samples;Min_cycle;Max_cycle;Signal;HPM_P1;HPM_P2
2022/09/04 00:00:11;;;;;;;10.57;5.70;;;20.90;59.60;;;;;;6239767;23;19996;-67
2022/09/04 00:02:55;;;;;;;8.73;5.57;;;20.80;60.00;;;;;;6241927;23;20070;-67
2022/09/04 00:05:42;;;;;;;4.78;3.95;;;20.80;60.00;;;;;;6241202;23;20008;-67
2022/09/04 00:08:16;;;;;;;4.47;3.53;;;20.80;60.50;;;;;;6242036;23;20004;-68
2022/09/04 00:11:21;;;;;;;3.72;3.08;;;20.70;60.70;;;;;;6241603;23;20006;-66
2022/09/04 00:14:05;;;;;;;3.70;2.65;;;20.70;61.70;;;;;;6242067;23;20054;-67
2022/09/04 00:16:41;;;;;;;4.38;3.50;;;20.70;61.10;;;;;;6241884;23;20456;-67
2022/09/04 00:19:38;;;;;;;3.35;3.05;;;20.60;61.50;;;;;;6241881;23;19996;-67
2022/09/04 00:22:20;;;;;;;6.43;3.10;;;20.70;61.40;;;;;;6241621;23;20014;-68
2022/09/04 00:24:56;;;;;;;4.68;3.03;;;20.60;61.40;;;;;;6241419;23;20504;-67
2022/09/04 00:27:29;;;;;;;4.88;3.15;;;20.60;61.60;;;;;;6241286;23;20031;-68
2022/09/04 00:30:06;;;;;;;3.60;3.25;;;20.60;62.10;;;;;;6241267;23;20435;-67
2022/09/04 00:32:50;;;;;;;4.68;3.70;;;20.50;62.70;;;;;;6241606;23;20004;-67
2022/09/04 00:35:35;;;;;;;5.13;3.65;;;20.40;63.40;;;;;;6241010;23;20067;-67
2022/09/04 00:38:30;;;;;;;4.82;3.83;;;20.40;63.80;;;;;;6241486;23;20027;-67
2022/09/04 00:41:14;;;;;;;4.57;3.80;;;20.30;64.40;;;;;;6241479;22;20077;-67
2022/09/04 00:44:06;;;;;;;4.20;3.78;;;20.20;64.60;;;;;;6241229;23;20000;-67
2022/09/04 00:47:09;;;;;;;4.35;3.50;;;20.20;65.00;;;;;;6241392;23;20055;-67
2022/09/04 00:49:56;;;;;;;6.03;3.90;;;20.20;65.20;;;;;;6241064;23;20677;-67
2022/09/04 00:52:32;;;;;;;4.40;3.85;;;20.10;65.30;;;;;;6241651;23;20043;-67
2022/09/04 00:55:25;;;;;;;4.80;4.25;;;20.10;65.60;;;;;;6240859;23;20000;-67
2022/09/04 00:58:02;;;;;;;4.78;3.65;;;20.10;66.10;;;;;;6241425;23;20083;-67
2022/09/04 01:00:29;;;;;;;5.15;3.72;;;20.10;65.90;;;;;;6241170;23;20007;-67
2022/09/04 01:03:06;;;;;;;6.00;4.05;;;20.10;66.30;;;;;;6240899;23;20754;-67
2022/09/04 01:05:56;;;;;;;4.78;3.72;;;20.00;66.50;;;;;;6241032;23;20031;-67
2022/09/04 01:08:46;;;;;;;4.65;4.00;;;20.10;66.60;;;;;;6240706;23;20103;-67
2022/09/04 01:11:40;;;;;;;5.35;4.28;;;20.00;67.20;;;;;;6241123;23;20005;-67
2022/09/04 01:14:32;;;;;;;5.75;4.47;;;19.90;67.70;;;;;;6240935;23;20004;-67
2022/09/04 01:17:09;;;;;;;6.07;4.90;;;19.80;68.20;;;;;;6241022;23;20000;-67
2022/09/04 01:20:08;;;;;;;6.05;5.30;;;19.80;68.30;;;;;;6238753;23;20000;-68
2022/09/04 01:23:09;;;;;;;7.53;4.93;;;19.80;68.70;;;;;;6240723;23;20035;-66
2022/09/04 01:25:59;;;;;;;5.30;4.28;;;19.70;68.80;;;;;;6240658;23;20004;-66
2022/09/04 01:28:43;;;;;;;5.65;4.22;;;19.70;69.30;;;;;;6241252;23;20046;-65
2022/09/04 01:31:30;;;;;;;4.00;3.45;;;19.60;69.70;;;;;;6241265;23;20376;-66
2022/09/04 01:34:34;;;;;;;4.47;3.90;;;19.70;69.40;;;;;;6241163;23;20004;-67
2022/09/04 01:37:24;;;;;;;5.55;3.53;;;19.70;69.10;;;;;;6240542;22;20499;-66
2022/09/04 01:40:13;;;;;;;5.85;4.07;;;19.70;68.90;;;;;;6241544;23;20035;-67
2022/09/04 01:42:49;;;;;;;5.43;4.45;;;19.70;69.20;;;;;;6240867;23;20007;-67
2022/09/04 01:45:25;;;;;;;5.85;4.88;;;19.70;69.70;;;;;;6240655;23;20401;-67
2022/09/04 01:47:57;;;;;;;6.70;4.55;;;19.60;70.10;;;;;;6240661;23;19996;-66
2022/09/04 01:50:27;;;;;;;6.40;4.95;;;19.60;70.60;;;;;;6240100;23;20007;-66
2022/09/04 01:53:24;;;;;;;5.93;4.60;;;19.50;70.60;;;;;;6240929;23;20000;-66
2022/09/04 01:56:03;;;;;;;5.57;4.70;;;19.50;70.80;;;;;;6240574;23;20008;-67
2022/09/04 01:58:49;;;;;;;5.95;4.40;;;19.50;70.90;;;;;;6241375;23;20004;-66
2022/09/04 02:01:21;;;;;;;4.88;4.22;;;19.50;70.80;;;;;;6240208;23;20333;-67
2022/09/04 02:04:17;;;;;;;5.72;5.05;;;19.50;70.60;;;;;;6241166;23;20019;-67
2022/09/04 02:07:04;;;;;;;6.40;4.53;;;19.50;70.60;;;;;;6241403;23;20080;-67
2022/09/04 02:09:54;;;;;;;7.38;4.80;;;19.40;70.90;;;;;;6241104;23;20122;-67
2022/09/04 02:12:36;;;;;;;6.03;4.85;;;19.40;71.00;;;;;;6240722;23;20020;-66
2022/09/04 02:15:03;;;;;;;5.15;4.45;;;19.40;71.10;;;;;;6240785;23;20053;-66
2022/09/04 02:17:47;;;;;;;6.53;5.32;;;19.40;71.20;;;;;;6241160;23;20000;-67
2022/09/04 02:20:21;;;;;;;5.82;4.80;;;19.40;71.30;;;;;;6241026;23;20000;-67
2022/09/04 02:23:31;;;;;;;5.28;4.32;;;19.30;71.30;;;;;;6240918;23;20003;-67
2022/09/04 02:26:11;;;;;;;5.22;4.25;;;19.30;71.40;;;;;;6230263;23;20387;-67
2022/09/04 02:28:46;;;;;;;6.97;6.28;;;19.30;71.50;;;;;;6210703;23;20035;-67
2022/09/04 02:31:17;;;;;;;3.80;3.05;;;19.20;71.80;;;;;;6209828;23;20639;-67
2022/09/04 02:34:05;;;;;;;6.97;5.10;;;19.30;72.10;;;;;;6208858;23;20012;-67
2022/09/04 02:36:53;;;;;;;7.05;5.80;;;19.20;72.00;;;;;;6210551;23;20004;-67
2022/09/04 02:39:39;;;;;;;8.43;6.70;;;19.20;72.20;;;;;;6210127;23;20001;-67
2022/09/04 02:42:25;;;;;;;6.88;5.47;;;19.10;72.80;;;;;;6199241;23;20434;-67
2022/09/04 02:45:16;;;;;;;5.75;4.57;;;19.10;72.70;;;;;;6210656;23;20005;-67
2022/09/04 02:47:50;;;;;;;4.93;4.15;;;19.10;72.70;;;;;;6210419;23;20004;-67
2022/09/04 02:50:38;;;;;;;5.95;4.43;;;19.10;72.50;;;;;;6210766;23;20005;-67
2022/09/04 02:53:15;;;;;;;5.10;4.35;;;19.10;72.30;;;;;;6183624;23;20361;-67
2022/09/04 02:56:12;;;;;;;5.53;4.43;;;19.10;72.10;;;;;;6210323;23;20008;-66
2022/09/04 02:59:10;;;;;;;6.22;4.57;;;19.10;72.40;;;;;;6209640;23;20438;-67
2022/09/04 03:01:42;;;;;;;7.55;6.03;;;19.10;72.40;;;;;;6210115;23;20005;-67
2022/09/04 03:04:10;;;;;;;4.97;4.43;;;19.10;72.90;;;;;;6210217;23;20001;-68
2022/09/04 03:06:53;;;;;;;6.60;5.65;;;19.10;72.80;;;;;;6209786;23;20001;-67
2022/09/04 03:09:34;;;;;;;6.75;5.00;;;19.00;73.20;;;;;;6210099;23;20035;-67
2022/09/04 03:12:38;;;;;;;6.38;4.72;;;19.00;73.10;;;;;;6210360;23;19996;-68
2022/09/04 03:15:26;;;;;;;5.90;4.72;;;19.00;73.20;;;;;;6201449;23;20067;-67
2022/09/04 03:18:18;;;;;;;4.80;4.15;;;19.00;73.00;;;;;;6210396;23;20024;-67
2022/09/04 03:20:55;;;;;;;4.88;4.38;;;19.00;72.70;;;;;;6210359;23;20027;-67
2022/09/04 03:23:29;;;;;;;6.57;5.65;;;19.00;72.70;;;;;;6210219;23;20028;-67
2022/09/04 03:26:12;;;;;;;5.40;4.90;;;19.00;73.20;;;;;;6212319;23;20345;-67
2022/09/04 03:28:43;;;;;;;6.35;4.90;;;19.00;73.10;;;;;;6211958;23;20086;-67
2022/09/04 03:31:35;;;;;;;6.85;6.15;;;19.00;73.10;;;;;;6211999;23;20050;-68
2022/09/04 03:34:20;;;;;;;8.23;6.80;;;18.90;73.70;;;;;;6183864;23;20005;-68
2022/09/04 03:36:57;;;;;;;8.73;7.82;;;18.80;74.40;;;;;;6211988;23;20224;-67
2022/09/04 03:39:48;;;;;;;10.70;7.00;;;18.70;74.70;;;;;;6212189;23;20032;-67
2022/09/04 03:42:34;;;;;;;7.75;6.20;;;18.70;75.20;;;;;;6211884;23;20031;-66
2022/09/04 03:45:41;;;;;;;6.32;5.45;;;18.70;74.90;;;;;;6212147;23;20594;-67
2022/09/04 03:48:35;;;;;;;7.25;6.47;;;18.70;74.50;;;;;;6211671;23;20062;-66
2022/09/04 03:51:42;;;;;;;7.90;6.72;;;18.70;74.60;;;;;;6180046;23;20008;-67
2022/09/04 03:54:29;;;;;;;9.07;6.40;;;18.60;74.80;;;;;;6211838;23;20005;-67
2022/09/04 03:57:14;;;;;;;6.10;5.50;;;18.60;74.80;;;;;;6211632;23;20138;-66
2022/09/04 04:00:02;;;;;;;8.68;7.25;;;18.70;74.60;;;;;;6211674;23;20000;-66
2022/09/04 04:03:05;;;;;;;7.78;6.00;;;18.50;75.10;;;;;;6211961;23;20004;-66
2022/09/04 04:05:39;;;;;;;9.52;7.40;;;18.60;74.80;;;;;;6211577;23;20034;-66
2022/09/04 04:08:33;;;;;;;8.90;7.28;;;18.50;75.20;;;;;;6211864;23;20560;-66
2022/09/04 04:11:04;;;;;;;9.55;7.22;;;18.50;75.50;;;;;;6211610;23;20013;-66
2022/09/04 04:13:44;;;;;;;7.50;5.45;;;18.50;75.50;;;;;;6212177;23;20004;-67
2022/09/04 04:16:23;;;;;;;7.47;5.80;;;18.50;75.20;;;;;;6211834;23;20367;-67
2022/09/04 04:19:26;;;;;;;9.38;7.13;;;18.50;75.20;;;;;;6211793;23;20008;-67
2022/09/04 04:22:21;;;;;;;8.10;6.63;;;18.40;75.60;;;;;;6211694;23;20004;-67
2022/09/04 04:24:56;;;;;;;7.85;7.03;;;18.30;75.70;;;;;;6211421;23;20004;-67
2022/09/04 04:27:59;;;;;;;7.57;6.32;;;18.30;75.90;;;;;;6226525;23;20019;-67
2022/09/04 04:30:46;;;;;;;9.82;7.75;;;18.30;75.80;;;;;;6241512;23;20385;-67
2022/09/04 04:33:24;;;;;;;7.68;6.78;;;18.30;76.10;;;;;;6242092;23;20004;-67
2022/09/04 04:36:18;;;;;;;7.05;5.93;;;18.30;76.00;;;;;;6241181;23;20008;-67
2022/09/04 04:39:02;;;;;;;7.97;6.28;;;18.30;75.90;;;;;;6242025;23;20003;-67
2022/09/04 04:42:19;;;;;;;7.68;6.22;;;18.30;76.00;;;;;;6241541;23;20059;-67
2022/09/04 04:48:25;;;;;;;8.82;7.07;;;18.40;75.50;;;;;;6241828;23;20081;-67
2022/09/04 04:51:04;;;;;;;9.60;7.47;;;18.30;75.90;;;;;;6241564;23;20030;-67
2022/09/04 04:53:35;;;;;;;7.28;6.13;;;18.30;76.20;;;;;;6241621;23;20083;-67
2022/09/04 04:56:33;;;;;;;7.20;6.25;;;18.30;76.10;;;;;;6241631;23;20035;-67
2022/09/04 04:59:04;;;;;;;7.85;6.20;;;18.30;75.90;;;;;;6241164;23;20047;-67
2022/09/04 05:02:08;;;;;;;7.93;6.63;;;18.40;75.80;;;;;;6242611;23;20005;-67
2022/09/04 05:04:56;;;;;;;7.47;6.38;;;18.40;75.70;;;;;;6241719;23;20010;-67
2022/09/04 05:07:35;;;;;;;9.20;7.72;;;18.40;75.40;;;;;;6241794;23;20004;-67
2022/09/04 05:10:10;;;;;;;8.20;6.55;;;18.40;75.80;;;;;;6241324;23;20008;-67
2022/09/04 05:12:56;;;;;;;7.15;6.43;;;18.40;75.70;;;;;;6241493;23;20449;-67
2022/09/04 05:15:43;;;;;;;7.90;6.72;;;18.40;75.50;;;;;;6239836;23;20008;-67
2022/09/04 05:18:30;;;;;;;7.30;6.53;;;18.50;75.40;;;;;;6241417;23;20007;-67
2022/09/04 05:21:19;;;;;;;7.50;6.43;;;18.50;75.20;;;;;;6241119;23;20050;-67
2022/09/04 05:24:01;;;;;;;8.63;6.78;;;18.60;75.10;;;;;;6241350;23;20333;-68
2022/09/04 05:26:37;;;;;;;7.30;6.45;;;18.60;75.00;;;;;;6241208;23;20004;-68
2022/09/04 05:29:34;;;;;;;7.35;6.30;;;18.60;75.00;;;;;;6241269;23;20004;-68
2022/09/04 05:32:24;;;;;;;6.47;5.53;;;18.90;74.80;;;;;;6240905;23;20046;-67
2022/09/04 05:34:50;;;;;;;7.60;6.28;;;19.30;73.80;;;;;;6241228;23;20011;-67
2022/09/04 05:37:45;;;;;;;7.88;6.80;;;19.50;72.70;;;;;;6240648;23;20000;-67
2022/09/04 05:40:27;;;;;;;8.23;7.03;;;19.50;72.60;;;;;;6239746;23;20008;-67
2022/09/04 05:42:53;;;;;;;;;;;19.40;73.00;;;;;;6241513;23;19997;-68
2022/09/04 05:45:37;;;;;;;5.32;4.38;;;19.30;73.10;;;;;;6242241;22;19906;-67
2022/09/04 05:48:09;;;;;;;6.10;5.32;;;19.20;73.20;;;;;;6239423;23;20015;-68
2022/09/04 05:50:53;;;;;;;11.15;7.18;;;19.20;73.50;;;;;;6241155;23;20576;-68
2022/09/04 05:53:28;;;;;;;7.00;5.63;;;19.10;73.70;;;;;;6241357;23;20004;-68
2022/09/04 05:56:31;;;;;;;8.20;6.88;;;19.20;73.60;;;;;;6241177;23;20000;-68
2022/09/04 05:59:36;;;;;;;9.63;7.32;;;19.30;73.60;;;;;;6241493;23;20333;-68
2022/09/04 06:02:08;;;;;;;7.45;6.53;;;19.80;73.00;;;;;;6241336;23;20007;-67
2022/09/04 06:05:02;;;;;;;7.45;6.65;;;20.20;72.10;;;;;;6241237;23;20004;-67
2022/09/04 06:07:56;;;;;;;9.40;8.02;;;20.80;70.70;;;;;;6201664;22;20013;-68
2022/09/04 06:10:38;;;;;;;7.28;6.05;;;21.10;69.70;;;;;;6241132;23;20043;-68
2022/09/04 06:13:09;;;;;;;;;;;21.50;68.40;;;;;;6240195;23;20004;-68
2022/09/04 06:15:56;;;;;;;8.18;7.03;;;21.80;67.70;;;;;;6240349;22;19904;-66
2022/09/04 06:18:38;;;;;;;7.15;6.43;;;22.20;66.50;;;;;;6240053;23;20057;-67
2022/09/04 06:21:28;;;;;;;8.70;7.68;;;22.60;65.30;;;;;;6240711;23;20341;-67
2022/09/04 06:24:15;;;;;;;7.68;6.88;;;23.10;64.20;;;;;;6240897;23;20781;-66
2022/09/04 06:27:09;;;;;;;7.03;6.03;;;23.60;62.80;;;;;;6239717;23;20015;-67
2022/09/04 06:29:50;;;;;;;6.13;5.53;;;24.20;61.60;;;;;;6240768;23;20012;-67
2022/09/04 06:32:43;;;;;;;5.18;4.05;;;25.10;59.90;;;;;;6240431;23;20071;-67
2022/09/04 06:35:35;;;;;;;7.40;6.47;;;25.60;58.40;;;;;;6239882;23;20004;-67
2022/09/04 06:38:06;;;;;;;8.30;7.13;;;25.70;57.20;;;;;;6240488;23;20000;-67
2022/09/04 06:40:38;;;;;;;;;;;25.60;56.90;;;;;;6240880;23;20332;-67
2022/09/04 06:43:19;;;;;;;7.70;5.43;;;26.00;57.00;;;;;;6240511;22;19899;-68
2022/09/04 06:46:14;;;;;;;7.10;5.75;;;26.60;55.80;;;;;;6240514;23;20009;-67
2022/09/04 06:49:17;;;;;;;5.25;4.75;;;27.10;54.80;;;;;;6240872;23;20012;-67
2022/09/04 06:52:18;;;;;;;6.57;5.88;;;27.60;53.90;;;;;;6240770;23;20039;-67
2022/09/04 06:55:04;;;;;;;5.47;4.70;;;27.50;52.70;;;;;;6240799;23;20388;-66
2022/09/04 06:57:48;;;;;;;6.05;5.28;;;27.70;52.70;;;;;;6238105;23;20003;-67
2022/09/04 07:00:15;;;;;;;6.90;6.18;;;28.00;52.00;;;;;;6242683;23;20131;-67
2022/09/04 07:02:53;;;;;;;6.00;5.30;;;27.70;51.90;;;;;;6241434;23;20000;-67
2022/09/04 07:05:31;;;;;;;5.72;5.13;;;27.40;52.30;;;;;;6242126;23;20034;-67
2022/09/04 07:08:21;;;;;;;6.07;5.05;;;27.50;52.70;;;;;;6241837;23;20003;-68
2022/09/04 07:10:49;;;;;;;5.60;4.35;;;27.80;52.20;;;;;;6242662;23;20011;-67
2022/09/04 07:13:55;;;;;;;6.22;4.88;;;28.50;51.50;;;;;;6254275;23;20000;-67
2022/09/04 07:16:53;;;;;;;5.97;5.38;;;29.00;50.10;;;;;;6245224;23;20015;-68
2022/09/04 07:19:42;;;;;;;6.70;5.15;;;29.20;49.60;;;;;;6243145;22;20503;-68
2022/09/04 07:22:30;;;;;;;6.43;5.30;;;28.70;49.50;;;;;;6242783;23;20038;-68
2022/09/04 07:25:12;;;;;;;7.25;5.97;;;27.70;50.70;;;;;;6242237;23;20011;-68
2022/09/04 07:28:00;;;;;;;7.22;5.53;;;26.70;52.60;;;;;;6242809;23;20405;-68
2022/09/04 07:30:33;;;;;;;5.43;4.75;;;26.10;54.00;;;;;;6247219;23;20034;-68
2022/09/04 07:33:08;;;;;;;6.35;4.22;;;26.50;53.40;;;;;;6244203;23;20016;-68
2022/09/04 07:36:13;;;;;;;4.05;3.58;;;25.90;54.20;;;;;;6239388;23;20058;-68
2022/09/04 07:39:06;;;;;;;6.47;5.80;;;25.40;55.40;;;;;;6241785;22;20019;-68
2022/09/04 07:42:08;;;;;;;6.43;5.72;;;25.00;56.50;;;;;;6240720;23;20046;-68
2022/09/04 07:44:48;;;;;;;7.70;6.45;;;24.30;58.30;;;;;;6240117;23;20000;-67
2022/09/04 07:47:21;;;;;;;6.40;5.40;;;24.00;59.10;;;;;;6241886;23;20044;-67
2022/09/04 07:50:09;;;;;;;6.38;5.50;;;24.20;59.60;;;;;;6241430;23;20050;-67
2022/09/04 07:52:49;;;;;;;7.20;5.82;;;24.90;58.00;;;;;;6242909;23;20022;-68
2022/09/04 07:55:36;;;;;;;6.97;6.28;;;25.40;57.50;;;;;;6240240;23;20008;-68
2022/09/04 07:58:30;;;;;;;7.13;6.35;;;27.00;54.90;;;;;;6243252;23;20023;-68
2022/09/04 08:01:26;;;;;;;6.57;5.60;;;28.50;51.80;;;;;;6258663;23;19996;-68
2022/09/04 08:04:18;;;;;;;5.20;4.53;;;29.10;50.30;;;;;;6254442;23;20062;-67
2022/09/04 08:07:06;;;;;;;4.32;3.10;;;29.70;48.90;;;;;;6242883;23;20000;-67
2022/09/04 08:09:55;;;;;;;5.43;4.93;;;30.30;47.90;;;;;;6239457;23;20666;-67
2022/09/04 08:12:46;;;;;;;5.55;4.97;;;30.20;47.80;;;;;;6242062;23;20050;-68
2022/09/04 08:15:25;;;;;;;7.10;5.70;;;30.20;47.30;;;;;;6232005;23;20404;-65
2022/09/04 08:18:21;;;;;;;7.05;6.35;;;30.30;46.90;;;;;;6240250;23;20001;-67
2022/09/04 08:21:20;;;;;;;7.22;5.30;;;30.10;46.70;;;;;;6242200;23;20004;-66
2022/09/04 08:24:00;;;;;;;6.50;5.78;;;28.60;48.80;;;;;;6241768;23;20022;-67
2022/09/04 08:27:08;;;;;;;4.23;3.83;;;27.50;50.90;;;;;;6241820;23;20031;-67
2022/09/04 08:29:48;;;;;;;5.20;4.43;;;27.00;52.10;;;;;;6241515;23;20239;-68
2022/09/04 08:32:30;;;;;;;5.18;3.78;;;26.80;53.20;;;;;;6241608;23;20000;-67
2022/09/04 08:35:20;;;;;;;5.72;4.90;;;26.50;54.00;;;;;;6240863;23;20007;-67
2022/09/04 08:38:05;;;;;;;5.13;4.53;;;26.20;54.50;;;;;;6241034;23;20001;-68
2022/09/04 08:40:49;;;;;;;5.82;4.10;;;26.00;55.00;;;;;;6241937;23;20071;-68
2022/09/04 08:43:43;;;;;;;5.30;4.22;;;25.70;55.70;;;;;;6242082;23;19996;-68
2022/09/04 08:46:34;;;;;;;5.00;4.25;;;25.40;56.60;;;;;;6241712;23;20062;-68
2022/09/04 08:49:25;;;;;;;5.78;4.90;;;25.30;57.40;;;;;;6242357;23;20004;-68
2022/09/04 08:51:55;;;;;;;4.57;3.87;;;25.10;57.90;;;;;;6241524;23;20004;-68
2022/09/04 08:54:30;;;;;;;7.25;5.65;;;25.10;58.20;;;;;;6241587;23;20342;-68
2022/09/04 08:57:17;;;;;;;7.03;5.75;;;25.10;58.10;;;;;;6241356;23;20000;-68
2022/09/04 09:00:00;;;;;;;4.07;3.47;;;24.80;58.50;;;;;;6241498;23;20050;-68
2022/09/04 09:02:50;;;;;;;4.63;4.03;;;24.90;58.70;;;;;;6239115;23;20000;-67
2022/09/04 09:05:44;;;;;;;6.70;4.32;;;25.10;58.40;;;;;;6241341;23;20007;-67
2022/09/04 09:08:47;;;;;;;5.32;3.70;;;25.20;58.30;;;;;;6237467;23;20579;-67
2022/09/04 09:11:33;;;;;;;5.63;4.20;;;25.10;58.40;;;;;;6239657;23;20015;-66
2022/09/04 09:14:20;;;;;;;4.47;3.83;;;25.20;58.30;;;;;;6238661;23;20012;-67
2022/09/04 09:16:58;;;;;;;4.95;3.50;;;25.30;58.10;;;;;;6240441;23;20028;-67
2022/09/04 09:19:42;;;;;;;6.65;4.30;;;25.40;58.00;;;;;;6242282;23;20065;-68
2022/09/04 09:22:13;;;;;;;4.90;3.60;;;25.50;57.70;;;;;;6240018;23;20662;-68
2022/09/04 09:24:50;;;;;;;3.40;2.77;;;25.50;57.60;;;;;;6241647;23;20468;-68
2022/09/04 09:27:54;;;;;;;5.25;4.18;;;25.60;57.40;;;;;;6239106;23;20012;-68
2022/09/04 09:30:21;;;;;;;4.95;4.25;;;25.60;57.40;;;;;;6241913;23;20003;-68
2022/09/04 09:33:22;;;;;;;4.53;3.58;;;25.70;57.20;;;;;;6241849;23;20004;-68
2022/09/04 09:36:01;;;;;;;3.20;2.70;;;25.80;57.10;;;;;;6241806;23;20029;-69
2022/09/04 09:38:48;;;;;;;3.20;2.90;;;25.80;56.90;;;;;;6242001;23;20024;-68
2022/09/04 09:41:36;;;;;;;4.03;3.30;;;25.90;56.50;;;;;;6241814;23;20035;-68
2022/09/04 09:44:21;;;;;;;2.75;1.92;;;25.90;56.50;;;;;;6241949;23;20079;-68
2022/09/04 09:47:25;;;;;;;2.92;2.65;;;25.90;56.00;;;;;;6241876;23;20064;-68
2022/09/04 09:50:19;;;;;;;3.30;3.00;;;26.00;55.80;;;;;;6240474;23;20004;-68
2022/09/04 09:52:59;;;;;;;3.50;2.78;;;26.00;55.80;;;;;;6241107;23;19996;-68
2022/09/04 09:55:27;;;;;;;4.45;3.80;;;26.00;56.50;;;;;;6241761;23;20429;-68
2022/09/04 09:58:24;;;;;;;4.22;3.47;;;26.10;55.70;;;;;;6241868;23;20384;-69
2022/09/04 10:01:00;;;;;;;3.95;2.80;;;26.10;55.50;;;;;;6241493;23;19996;-67
2022/09/04 10:03:38;;;;;;;4.53;3.85;;;26.10;55.50;;;;;;6242117;23;19996;-68
2022/09/04 10:06:30;;;;;;;3.55;3.15;;;26.10;55.40;;;;;;6241791;23;20062;-68
2022/09/04 10:09:07;;;;;;;5.50;4.30;;;26.20;55.50;;;;;;6242101;23;20432;-68
2022/09/04 10:11:57;;;;;;;4.30;3.47;;;26.20;55.40;;;;;;6241883;23;20004;-67
2022/09/04 10:14:42;;;;;;;3.67;2.90;;;26.20;55.40;;;;;;6241990;23;20043;-67
2022/09/04 10:17:28;;;;;;;3.40;2.83;;;26.30;55.40;;;;;;6241450;23;20443;-66
2022/09/04 10:20:27;;;;;;;3.58;2.80;;;26.40;55.20;;;;;;6241996;23;20047;-67
2022/09/04 10:23:04;;;;;;;4.30;3.67;;;26.60;55.00;;;;;;6239836;23;20007;-67
2022/09/04 10:25:42;;;;;;;3.83;2.85;;;26.70;54.60;;;;;;6240732;23;20004;-68
2022/09/04 10:28:45;;;;;;;3.20;2.28;;;26.70;54.40;;;;;;6239554;23;20008;-68
2022/09/04 10:31:52;;;;;;;3.30;2.60;;;26.90;54.40;;;;;;6240973;23;20055;-68
2022/09/04 10:34:45;;;;;;;4.57;2.90;;;26.90;53.90;;;;;;6160214;23;20117;-68
2022/09/04 10:37:31;;;;;;;5.43;3.53;;;27.00;53.10;;;;;;6243083;23;20036;-68
2022/09/04 10:43:08;;;;;;;3.70;2.92;;;27.00;53.10;;;;;;6242922;23;20019;-68
2022/09/04 10:45:56;;;;;;;4.32;2.42;;;27.10;52.80;;;;;;6242619;23;20000;-68
2022/09/04 10:48:48;;;;;;;4.18;2.22;;;27.30;52.50;;;;;;6243982;23;20468;-68
2022/09/04 10:51:48;;;;;;;2.53;2.30;;;27.40;52.10;;;;;;6244293;23;20019;-68
2022/09/04 10:54:49;;;;;;;4.43;3.38;;;27.60;51.90;;;;;;6242996;23;20000;-68
2022/09/04 10:57:33;;;;;;;2.30;2.10;;;27.60;51.40;;;;;;6244237;23;20030;-68
2022/09/04 11:00:11;;;;;;;3.10;2.20;;;27.70;51.50;;;;;;6243866;23;20349;-68
2022/09/04 11:03:20;;;;;;;3.10;1.90;;;27.80;51.30;;;;;;6242752;23;20004;-70
2022/09/04 11:06:10;;;;;;;3.22;2.17;;;28.00;51.00;;;;;;6242478;23;20008;-68
2022/09/04 11:08:42;;;;;;;3.60;2.50;;;28.10;50.70;;;;;;6242900;23;20004;-67
2022/09/04 11:11:21;;;;;;;4.32;3.53;;;28.10;49.80;;;;;;6241558;23;20008;-68
2022/09/04 11:14:02;;;;;;;3.38;2.70;;;28.10;49.70;;;;;;6242746;23;20326;-67
2022/09/04 11:16:28;;;;;;;4.03;2.50;;;27.90;50.00;;;;;;6242279;23;20007;-68
2022/09/04 11:19:14;;;;;;;2.83;1.90;;;28.00;50.20;;;;;;6242738;23;20032;-68
2022/09/04 11:22:13;;;;;;;2.70;2.08;;;28.10;50.20;;;;;;6242731;23;20000;-68
2022/09/04 11:25:03;;;;;;;3.10;2.00;;;28.20;49.90;;;;;;6243056;23;20000;-67
2022/09/04 11:27:35;;;;;;;2.08;1.75;;;28.30;49.90;;;;;;6242849;23;20004;-68
2022/09/04 11:30:34;;;;;;;3.38;2.00;;;28.40;49.70;;;;;;6242797;23;20028;-69
2022/09/04 11:33:36;;;;;;;2.40;1.65;;;28.40;49.40;;;;;;6211894;22;20421;-70
2022/09/04 11:36:10;;;;;;;2.63;1.90;;;28.40;49.30;;;;;;6242532;23;20011;-67
2022/09/04 11:39:03;;;;;;;2.03;1.70;;;28.40;49.30;;;;;;6242681;23;19996;-67
2022/09/04 11:41:53;;;;;;;2.47;1.75;;;28.40;49.00;;;;;;6242602;23;20038;-68
2022/09/04 11:44:35;;;;;;;1.92;1.80;;;28.40;48.90;;;;;;6240111;23;20030;-68
2022/09/04 11:47:29;;;;;;;2.70;1.67;;;28.40;48.90;;;;;;6241298;23;20004;-67
2022/09/04 11:50:07;;;;;;;3.17;2.20;;;28.50;48.90;;;;;;6242488;23;19999;-68
2022/09/04 11:53:13;;;;;;;2.97;1.98;;;28.30;48.60;;;;;;6242575;23;20072;-68
2022/09/04 11:56:01;;;;;;;2.75;2.13;;;28.30;49.30;;;;;;6242214;23;20008;-68
2022/09/04 11:58:39;;;;;;;6.10;3.20;;;28.20;49.10;;;;;;6242338;23;20142;-67
2022/09/04 12:01:15;;;;;;;2.83;2.20;;;28.40;48.70;;;;;;6242267;23;20425;-67
2022/09/04 12:04:02;;;;;;;2.35;1.80;;;28.50;48.70;;;;;;6242772;23;20000;-68
2022/09/04 12:06:37;;;;;;;3.55;1.67;;;28.50;48.40;;;;;;6237267;23;20073;-67
2022/09/04 12:09:32;;;;;;;2.17;1.65;;;28.60;48.40;;;;;;6239871;23;20011;-68
2022/09/04 12:12:32;;;;;;;2.35;1.35;;;28.60;48.00;;;;;;6241084;23;20075;-68
2022/09/04 12:15:19;;;;;;;2.05;1.60;;;28.70;48.10;;;;;;6210745;22;20410;-67
2022/09/04 12:18:15;;;;;;;1.70;1.42;;;28.80;47.80;;;;;;6240376;23;20023;-67
2022/09/04 12:21:00;;;;;;;2.53;1.50;;;28.90;47.70;;;;;;6239819;23;20656;-68
2022/09/04 12:24:03;;;;;;;2.00;1.35;;;29.10;47.60;;;;;;6241613;23;20022;-67
2022/09/04 12:26:40;;;;;;;4.75;1.70;;;29.10;47.30;;;;;;6240119;23;20008;-67
2022/09/04 12:29:21;;;;;;;1.40;1.30;;;28.90;46.80;;;;;;6241317;23;20122;-68
2022/09/04 12:32:14;;;;;;;2.92;1.90;;;28.90;47.20;;;;;;6241211;23;20004;-67
2022/09/04 12:35:00;;;;;;;1.88;1.60;;;28.90;46.80;;;;;;6241417;23;20353;-66
2022/09/04 12:37:44;;;;;;;2.28;1.70;;;28.80;46.90;;;;;;6239939;23;19996;-67
2022/09/04 12:40:28;;;;;;;2.70;1.75;;;28.80;46.90;;;;;;6241412;23;19996;-67
2022/09/04 12:43:12;;;;;;;1.60;1.48;;;28.80;46.90;;;;;;6241152;23;20000;-66
2022/09/04 12:45:42;;;;;;;1.70;1.60;;;28.90;47.00;;;;;;6240042;23;20000;-67
2022/09/04 12:48:26;;;;;;;1.80;1.40;;;28.80;46.80;;;;;;6240890;23;20134;-68
2022/09/04 12:50:52;;;;;;;2.47;1.85;;;28.80;47.00;;;;;;6239441;23;20005;-68
2022/09/04 12:53:32;;;;;;;6.03;2.83;;;28.80;47.00;;;;;;6241188;23;20065;-68
2022/09/04 12:56:14;;;;;;;3.50;2.45;;;28.90;46.90;;;;;;6239126;23;20455;-68
2022/09/04 12:59:14;;;;;;;2.17;1.77;;;28.70;46.60;;;;;;6240965;23;19996;-68
2022/09/04 13:02:03;;;;;;;1.90;1.63;;;28.80;46.80;;;;;;6240426;23;20026;-68
2022/09/04 13:05:05;;;;;;;3.60;1.80;;;29.10;46.50;;;;;;6240635;23;20057;-69
2022/09/04 13:07:49;;;;;;;1.70;1.58;;;29.30;46.10;;;;;;6239323;23;20054;-67
2022/09/04 13:10:20;;;;;;;2.05;1.45;;;29.60;46.10;;;;;;6241147;23;20444;-67
2022/09/04 13:13:00;;;;;;;2.30;1.90;;;29.80;45.70;;;;;;6240998;23;20007;-67
2022/09/04 13:15:33;;;;;;;3.35;1.75;;;29.90;45.10;;;;;;6239927;23;20001;-67
2022/09/04 13:18:20;;;;;;;2.65;1.70;;;29.80;44.80;;;;;;6240933;23;20020;-68
2022/09/04 13:21:09;;;;;;;1.98;1.55;;;29.50;44.80;;;;;;6241398;23;19996;-68
2022/09/04 13:23:47;;;;;;;1.92;1.60;;;29.50;45.10;;;;;;6241042;23;20004;-68
2022/09/04 13:26:28;;;;;;;1.83;1.70;;;29.20;44.90;;;;;;6239138;23;20004;-67
2022/09/04 13:29:28;;;;;;;2.08;1.77;;;29.10;45.30;;;;;;6240940;23;20008;-67
2022/09/04 13:32:00;;;;;;;2.35;1.40;;;29.10;45.20;;;;;;6240549;23;20004;-68
2022/09/04 13:34:50;;;;;;;4.22;2.00;;;29.10;45.60;;;;;;6240860;23;20026;-68
2022/09/04 13:37:22;;;;;;;3.05;1.80;;;29.10;45.60;;;;;;6240150;23;20376;-68
2022/09/04 13:40:16;;;;;;;2.67;2.00;;;29.00;45.60;;;;;;6240335;23;20000;-68
2022/09/04 13:43:07;;;;;;;2.30;1.55;;;29.00;45.40;;;;;;6240510;23;20393;-67
2022/09/04 13:45:56;;;;;;;3.55;2.20;;;29.10;45.50;;;;;;6239474;23;20058;-67
2022/09/04 13:48:46;;;;;;;2.40;1.67;;;29.20;45.30;;;;;;6240116;23;20036;-68
2022/09/04 13:51:17;;;;;;;3.22;1.80;;;29.40;45.30;;;;;;6238857;23;20032;-68
2022/09/04 13:53:42;;;;;;;3.42;1.60;;;29.40;45.20;;;;;;6240766;23;20000;-68
2022/09/04 13:56:14;;;;;;;1.70;1.60;;;29.50;44.80;;;;;;6239540;23;20058;-68
2022/09/04 13:58:43;;;;;;;;;;;29.70;44.70;;;;;;6241310;23;20000;-68
2022/09/04 14:01:14;;;;;;;2.50;1.50;;;29.80;44.50;;;;;;6240338;22;19903;-68
2022/09/04 14:03:59;;;;;;;1.60;1.50;;;29.80;44.30;;;;;;6240271;23;20589;-68
2022/09/04 14:06:28;;;;;;;1.40;1.30;;;29.90;44.10;;;;;;6239025;23;20000;-68
2022/09/04 14:08:56;;;;;;;1.42;1.10;;;29.90;44.20;;;;;;6239809;23;20000;-67
2022/09/04 14:11:59;;;;;;;2.53;1.50;;;30.00;44.10;;;;;;6240249;23;20375;-68
2022/09/04 14:14:43;;;;;;;2.15;1.10;;;29.90;43.70;;;;;;6240664;23;20000;-67
2022/09/04 14:17:11;;;;;;;1.70;1.20;;;29.70;43.50;;;;;;6239616;23;20032;-68
2022/09/04 14:19:59;;;;;;;2.58;1.20;;;29.60;43.90;;;;;;6240376;23;20015;-68
2022/09/04 14:22:48;;;;;;;1.40;1.20;;;29.70;43.90;;;;;;6240474;23;20046;-71
2022/09/04 14:25:49;;;;;;;2.03;1.20;;;29.60;44.10;;;;;;6239450;23;20067;-68
2022/09/04 14:28:36;;;;;;;1.27;1.17;;;29.70;44.20;;;;;;6240534;22;20004;-68